createdAt,value
2019-04-27T06:50:08.620Z,15.62
2019-04-27T06:51:09.663Z,16.13
2019-04-27T06:52:08.704Z,16.71
2019-04-27T06:53:09.109Z,17.26
2019-04-27T06:54:04.470Z,17.72
2019-04-27T06:55:06.291Z,18.25
2019-04-27T06:56:04.655Z,19.31
2019-04-27T06:57:04.590Z,19.66
2019-04-27T06:58:13.628Z,19.56
2019-04-27T06:59:04.462Z,18.83
2019-04-27T07:01:26.942Z,18.37
2019-04-27T07:02:34.542Z,18.28
2019-04-27T07:03:34.850Z,18.31
2019-04-27T07:04:34.919Z,18.49
2019-04-27T07:06:52.271Z,18.50
2019-04-27T07:08:49.804Z,18.59
2019-04-27T07:10:58.759Z,18.74
2019-04-27T07:11:59.113Z,18.59
2019-04-27T07:12:57.132Z,18.28
2019-04-27T07:15:08.771Z,18.53
2019-04-27T07:17:15.968Z,17.89
2019-04-27T07:19:25.762Z,18.70
2019-04-27T07:20:33.670Z,19.16
2019-04-27T07:21:34.238Z,19.29
2019-04-27T07:22:25.773Z,19.19
2019-04-27T07:23:33.860Z,19.21
2019-04-27T07:25:35.565Z,18.45
2019-04-27T07:26:43.502Z,18.66
2019-04-27T07:27:44.722Z,18.59
2019-04-27T07:28:35.498Z,18.55
2019-04-27T07:29:35.486Z,18.04
2019-04-27T07:30:43.566Z,17.92
2019-04-27T07:31:35.485Z,18.05
2019-04-27T07:32:35.455Z,18.03
2019-04-27T07:33:35.471Z,18.13
2019-04-27T07:34:35.454Z,18.10
2019-04-27T07:35:35.435Z,18.75
2019-04-27T07:36:35.393Z,18.81
2019-04-27T07:37:35.381Z,18.60
2019-04-27T07:38:35.371Z,18.63
2019-04-27T07:39:35.425Z,18.95
2019-04-27T07:40:35.343Z,19.26
2019-04-27T07:41:35.346Z,19.14
2019-04-27T07:42:35.322Z,18.63
2019-04-27T07:43:35.324Z,18.45
2019-04-27T07:44:35.316Z,18.74
2019-04-27T07:45:35.341Z,19.08
2019-04-27T07:46:35.291Z,19.22
2019-04-27T07:47:35.283Z,19.56
2019-04-27T07:48:35.259Z,19.48
2019-04-27T07:49:35.261Z,19.24
2019-04-27T07:50:35.261Z,19.16
2019-04-27T07:51:35.230Z,19.30
2019-04-27T07:52:37.874Z,19.34
2019-04-27T07:53:35.216Z,19.39
2019-04-27T07:54:35.211Z,19.36
2019-04-27T07:55:35.233Z,19.37
2019-04-27T07:56:35.180Z,19.58
2019-04-27T07:57:35.182Z,19.62
2019-04-27T07:58:35.142Z,19.79
2019-04-27T07:59:35.140Z,19.54
2019-04-27T08:00:35.149Z,19.27
2019-04-27T08:01:35.153Z,19.48
2019-04-27T08:02:35.122Z,19.08
2019-04-27T08:03:35.139Z,19.30
2019-04-27T08:04:35.081Z,19.56
2019-04-27T08:05:35.103Z,19.73
2019-04-27T08:06:35.065Z,19.84
2019-04-27T08:07:35.089Z,19.94
2019-04-27T08:08:35.058Z,19.44
2019-04-27T08:09:35.030Z,19.66
2019-04-27T08:10:35.041Z,19.45
2019-04-27T08:11:35.011Z,19.29
2019-04-27T08:12:35.043Z,19.48
2019-04-27T08:13:35.074Z,19.76
2019-04-27T08:14:34.991Z,20.07
2019-04-27T08:15:34.981Z,19.73
2019-04-27T08:16:34.986Z,20.13
2019-04-27T08:17:34.949Z,20.43
2019-04-27T08:18:34.967Z,20.28
2019-04-27T08:19:34.969Z,19.92
2019-04-27T08:20:34.939Z,19.86
2019-04-27T08:21:43.600Z,19.99
2019-04-27T08:22:35.909Z,19.82
2019-04-27T08:23:34.899Z,19.85
2019-04-27T08:24:34.880Z,19.96
2019-04-27T08:25:44.446Z,20.29
2019-04-27T08:26:34.901Z,20.21
2019-04-27T08:27:34.841Z,20.19
2019-04-27T08:28:34.846Z,20.41
2019-04-27T08:29:34.836Z,20.10
2019-04-27T08:30:35.030Z,20.22
2019-04-27T08:31:34.854Z,20.34
2019-04-27T08:32:34.826Z,20.11
2019-04-27T08:33:34.789Z,20.28
2019-04-27T08:34:34.807Z,20.77
2019-04-27T08:35:34.772Z,20.67
2019-04-27T08:36:34.777Z,20.75
2019-04-27T08:37:34.767Z,20.90
2019-04-27T08:38:34.779Z,20.90
2019-04-27T08:39:34.741Z,21.17
2019-04-27T08:40:34.721Z,20.78
2019-04-27T08:41:34.760Z,21.11
2019-04-27T08:42:34.708Z,21.50
2019-04-27T08:43:34.738Z,21.79
2019-04-27T08:44:34.709Z,21.39
2019-04-27T08:45:34.714Z,21.30
2019-04-27T08:46:34.706Z,21.51
2019-04-27T08:47:34.642Z,21.29
2019-04-27T08:48:36.894Z,20.67
2019-04-27T08:49:34.648Z,20.84
2019-04-27T08:50:34.660Z,20.95
2019-04-27T08:51:34.670Z,21.11
2019-04-27T08:52:34.664Z,20.74
2019-04-27T08:53:34.584Z,20.93
2019-04-27T08:54:34.635Z,21.05
2019-04-27T08:55:34.571Z,21.25
2019-04-27T08:56:34.568Z,21.27
2019-04-27T08:57:34.580Z,21.15
2019-04-27T08:58:34.516Z,19.56
2019-04-27T08:59:34.531Z,19.77
2019-04-27T09:00:34.498Z,20.52
2019-04-27T09:01:34.486Z,20.87
2019-04-27T09:02:44.527Z,20.78
2019-04-27T09:03:35.500Z,20.80
2019-04-27T09:04:34.451Z,20.52
2019-04-27T09:05:34.448Z,20.66
2019-04-27T09:06:37.282Z,20.82
2019-04-27T09:07:34.467Z,21.14
2019-04-27T09:08:34.462Z,21.29
2019-04-27T09:09:34.440Z,21.40
2019-04-27T09:10:34.403Z,21.43
2019-04-27T09:11:34.423Z,21.24
2019-04-27T09:12:34.387Z,21.00
2019-04-27T09:13:34.396Z,21.22
2019-04-27T09:14:34.374Z,21.52
2019-04-27T09:15:34.374Z,21.39
2019-04-27T09:16:34.347Z,21.27
2019-04-27T09:17:34.349Z,21.54
2019-04-27T09:18:34.309Z,21.66
2019-04-27T09:19:34.345Z,21.14
2019-04-27T09:20:34.301Z,20.96
2019-04-27T09:21:34.350Z,20.93
2019-04-27T09:22:34.276Z,21.02
2019-04-27T09:23:34.264Z,21.14
2019-04-27T09:24:34.302Z,21.17
2019-04-27T09:25:34.236Z,21.18
2019-04-27T09:26:34.216Z,20.62
2019-04-27T09:27:34.206Z,20.21
2019-04-27T09:28:34.234Z,19.82
2019-04-27T09:29:34.240Z,20.63
2019-04-27T09:30:34.217Z,20.66
2019-04-27T09:31:34.187Z,21.14
2019-04-27T09:32:34.186Z,21.18
2019-04-27T09:33:34.192Z,20.56
2019-04-27T09:34:34.223Z,20.75
2019-04-27T09:35:35.616Z,21.29
2019-04-27T09:36:34.106Z,21.85
2019-04-27T09:37:34.204Z,22.47
2019-04-27T09:38:35.718Z,22.54
2019-04-27T09:39:35.767Z,22.07
2019-04-27T09:40:35.917Z,21.85
2019-04-27T09:41:34.078Z,21.11
2019-04-27T09:42:34.048Z,20.50
2019-04-27T09:43:34.079Z,19.37
2019-04-27T09:44:34.035Z,18.25
2019-04-27T09:45:34.040Z,17.78
2019-04-27T09:46:34.075Z,17.38
2019-04-27T09:47:34.028Z,17.12
2019-04-27T09:48:34.010Z,17.06
2019-04-27T09:49:33.998Z,16.91
2019-04-27T09:50:35.943Z,17.09
2019-04-27T09:51:33.963Z,17.56
2019-04-27T09:52:35.790Z,17.48
2019-04-27T09:53:33.922Z,17.89
2019-04-27T09:54:33.929Z,18.60
2019-04-27T09:55:33.928Z,18.75
2019-04-27T09:56:33.934Z,18.68
2019-04-27T09:57:33.883Z,19.11
2019-04-27T09:58:33.928Z,18.92
2019-04-27T09:59:33.868Z,18.37
2019-04-27T10:00:33.862Z,17.92
2019-04-27T10:01:36.035Z,17.46
2019-04-27T10:02:33.858Z,16.99
2019-04-27T10:03:33.820Z,16.66
2019-04-27T10:04:35.567Z,16.23
2019-04-27T10:05:33.806Z,16.00
2019-04-27T10:06:33.817Z,15.70
2019-04-27T10:07:33.781Z,15.55
2019-04-27T10:08:33.770Z,15.49
2019-04-27T10:09:33.802Z,15.43
2019-04-27T10:10:33.800Z,15.28
2019-04-27T10:11:35.492Z,15.09
2019-04-27T10:12:34.492Z,15.00
2019-04-27T10:13:33.709Z,14.94
2019-04-27T10:14:33.697Z,14.88
2019-04-27T10:15:35.552Z,14.91
2019-04-27T10:16:33.706Z,14.97
2019-04-27T10:17:33.673Z,14.96
2019-04-27T10:18:33.675Z,14.99
2019-04-27T10:19:33.693Z,14.96
2019-04-27T10:20:38.296Z,14.91
2019-04-27T10:21:36.441Z,14.85
2019-04-27T10:22:41.198Z,14.73
2019-04-27T10:23:36.188Z,14.59
2019-04-27T10:24:33.626Z,14.40
2019-04-27T10:25:33.595Z,14.28
2019-04-27T10:26:33.620Z,14.11
2019-04-27T10:27:33.566Z,13.96
2019-04-27T10:28:33.552Z,13.85
2019-04-27T10:29:33.543Z,13.71
2019-04-27T10:30:33.533Z,13.53
2019-04-27T10:31:33.534Z,13.37
2019-04-27T10:32:33.541Z,13.19
2019-04-27T10:33:33.510Z,13.11
2019-04-27T10:34:33.517Z,13.01
2019-04-27T10:35:33.491Z,12.79
2019-04-27T10:36:33.498Z,12.65
2019-04-27T10:37:33.516Z,12.60
2019-04-27T10:38:33.464Z,12.54
2019-04-27T10:39:33.455Z,12.47
2019-04-27T10:40:33.412Z,12.39
2019-04-27T10:41:33.412Z,12.31
2019-04-27T10:42:33.436Z,12.22
2019-04-27T10:43:33.421Z,12.22
2019-04-27T10:44:33.391Z,12.17
2019-04-27T10:45:33.390Z,12.09
2019-04-27T10:46:33.396Z,12.09
2019-04-27T10:47:33.377Z,12.07
2019-04-27T10:48:33.351Z,12.06
2019-04-27T10:49:33.359Z,12.09
2019-04-27T10:50:33.325Z,12.17
2019-04-27T10:51:33.319Z,12.31
2019-04-27T10:52:33.311Z,12.42
2019-04-27T10:53:33.335Z,12.54
2019-04-27T10:54:33.307Z,12.67
2019-04-27T10:55:33.289Z,12.78
2019-04-27T10:56:33.257Z,12.79
2019-04-27T10:57:33.257Z,12.76
2019-04-27T10:58:33.229Z,12.78
2019-04-27T10:59:33.237Z,12.80
2019-04-27T11:00:33.210Z,12.82
2019-04-27T11:01:33.221Z,12.85
2019-04-27T11:02:33.231Z,12.82
2019-04-27T11:03:33.184Z,12.79
2019-04-27T11:04:33.180Z,12.78
2019-04-27T11:05:33.180Z,12.78
2019-04-27T11:06:33.153Z,12.85
2019-04-27T11:07:33.137Z,13.01
2019-04-27T11:08:33.124Z,13.03
2019-04-27T11:09:33.175Z,13.12
2019-04-27T11:10:33.105Z,13.13
2019-04-27T11:11:33.109Z,13.27
2019-04-27T11:12:33.105Z,13.31
2019-04-27T11:13:33.115Z,13.28
2019-04-27T11:14:33.065Z,13.15
2019-04-27T11:15:33.100Z,13.04
2019-04-27T11:16:33.043Z,12.98
2019-04-27T11:17:33.027Z,12.93
2019-04-27T11:18:33.023Z,12.82
2019-04-27T11:19:33.011Z,12.79
2019-04-27T11:20:33.005Z,12.72
2019-04-27T11:21:33.021Z,12.58
2019-04-27T11:22:32.979Z,12.43
2019-04-27T11:23:32.979Z,12.35
2019-04-27T11:24:32.957Z,12.31
2019-04-27T11:25:32.951Z,12.28
2019-04-27T11:26:32.950Z,12.35
2019-04-27T11:27:32.967Z,12.35
2019-04-27T11:28:32.908Z,12.32
2019-04-27T11:29:32.901Z,12.32
2019-04-27T11:30:32.881Z,12.31
2019-04-27T11:31:33.011Z,12.32
2019-04-27T11:32:32.900Z,12.35
2019-04-27T11:33:32.881Z,12.36
2019-04-27T11:34:32.839Z,12.42
2019-04-27T11:35:32.837Z,12.40
2019-04-27T11:36:32.807Z,12.42
2019-04-27T11:37:32.853Z,12.40
2019-04-27T11:38:32.806Z,12.36
2019-04-27T11:39:32.788Z,12.36
2019-04-27T11:40:32.777Z,12.29
2019-04-27T11:41:32.788Z,12.31
2019-04-27T11:42:32.805Z,12.31
2019-04-27T11:43:32.757Z,12.28
2019-04-27T11:44:32.736Z,12.35
2019-04-27T11:45:32.747Z,12.37
2019-04-27T11:46:32.718Z,12.37
2019-04-27T11:47:32.717Z,12.40
2019-04-27T11:48:32.706Z,12.37
2019-04-27T11:49:32.846Z,12.24
2019-04-27T11:50:32.680Z,12.09
2019-04-27T11:51:32.651Z,12.00
2019-04-27T11:52:32.663Z,11.94
2019-04-27T11:53:32.748Z,11.86
2019-04-27T11:54:32.639Z,11.81
2019-04-27T11:55:32.663Z,11.69
2019-04-27T11:56:32.687Z,11.72
2019-04-27T11:57:32.593Z,11.72
2019-04-27T11:58:34.899Z,11.66
2019-04-27T11:59:32.614Z,11.70
2019-04-27T12:00:32.587Z,11.78
2019-04-27T12:01:32.547Z,11.88
2019-04-27T12:02:32.549Z,12.02
2019-04-27T12:03:32.538Z,12.15
2019-04-27T12:04:32.562Z,12.29
2019-04-27T12:05:32.536Z,12.37
2019-04-27T12:06:32.511Z,12.45
2019-04-27T12:07:32.481Z,12.54
2019-04-27T12:08:32.478Z,12.62
2019-04-27T12:09:32.470Z,12.73
2019-04-27T12:10:32.486Z,12.86
2019-04-27T12:11:32.449Z,12.95
2019-04-27T12:12:32.453Z,12.95
2019-04-27T12:13:32.438Z,12.93
2019-04-27T12:14:32.418Z,12.86
2019-04-27T12:15:32.448Z,12.85
2019-04-27T12:16:32.407Z,12.93
2019-04-27T12:17:32.397Z,12.87
2019-04-27T12:18:32.379Z,12.79
2019-04-27T12:19:32.369Z,12.85
2019-04-27T12:20:32.366Z,12.87
2019-04-27T12:21:32.415Z,12.82
2019-04-27T12:22:32.476Z,12.75
2019-04-27T12:23:35.490Z,12.73
2019-04-27T12:24:32.439Z,12.68
2019-04-27T12:25:32.298Z,12.64
2019-04-27T12:26:32.305Z,12.64
2019-04-27T12:27:32.292Z,12.65
2019-04-27T12:28:32.275Z,12.60
2019-04-27T12:29:32.258Z,12.58
2019-04-27T12:30:32.270Z,12.54
2019-04-27T12:31:32.264Z,12.50
2019-04-27T12:32:32.224Z,12.46
2019-04-27T12:33:32.231Z,12.42
2019-04-27T12:34:32.233Z,12.35
2019-04-27T12:35:32.234Z,12.21
2019-04-27T12:36:32.242Z,12.10
2019-04-27T12:37:32.206Z,12.07
2019-04-27T12:38:32.194Z,12.06
2019-04-27T12:39:32.199Z,11.99
2019-04-27T12:40:32.171Z,11.94
2019-04-27T12:41:32.136Z,11.90
2019-04-27T12:42:32.134Z,11.86
2019-04-27T12:43:32.148Z,11.86
2019-04-27T12:44:32.117Z,11.84
2019-04-27T12:45:32.080Z,11.84
2019-04-27T12:46:32.096Z,11.86
2019-04-27T12:47:32.103Z,11.94
2019-04-27T12:48:32.091Z,11.99
2019-04-27T12:49:32.042Z,11.99
2019-04-27T12:50:32.051Z,11.90
2019-04-27T12:51:32.059Z,11.90
2019-04-27T12:52:32.062Z,11.97
2019-04-27T12:53:32.044Z,11.94
2019-04-27T12:54:32.113Z,11.95
2019-04-27T12:55:32.011Z,12.00
2019-04-27T12:56:32.004Z,12.04
2019-04-27T12:57:31.990Z,12.04
2019-04-27T12:58:31.962Z,12.12
2019-04-27T12:59:31.978Z,12.17
2019-04-27T13:00:32.000Z,12.20
2019-04-27T13:01:31.913Z,12.22
2019-04-27T13:02:31.897Z,12.22
2019-04-27T13:03:31.913Z,12.24
2019-04-27T13:04:31.884Z,12.27
2019-04-27T13:05:31.899Z,12.35
2019-04-27T13:06:31.858Z,12.28
2019-04-27T13:07:31.864Z,12.36
2019-04-27T13:08:31.832Z,12.42
2019-04-27T13:09:31.819Z,12.36
2019-04-27T13:10:31.863Z,12.45
2019-04-27T13:11:31.798Z,12.47
2019-04-27T13:12:31.798Z,12.58
2019-04-27T13:13:31.808Z,12.47
2019-04-27T13:14:31.863Z,12.45
2019-04-27T13:15:31.778Z,12.42
2019-04-27T13:16:31.756Z,12.53
2019-04-27T13:17:31.732Z,12.64
2019-04-27T13:18:31.726Z,12.78
2019-04-27T13:19:31.735Z,12.85
2019-04-27T13:20:31.735Z,12.78
2019-04-27T13:21:31.743Z,12.80
2019-04-27T13:22:31.719Z,12.80
2019-04-27T13:23:31.693Z,12.76
2019-04-27T13:24:31.653Z,12.73
2019-04-27T13:25:31.649Z,12.79
2019-04-27T13:26:31.648Z,12.94
2019-04-27T13:27:31.654Z,12.95
2019-04-27T13:28:31.619Z,13.01
2019-04-27T13:29:31.597Z,13.11
2019-04-27T13:30:31.616Z,13.05
2019-04-27T13:31:31.582Z,13.12
2019-04-27T13:32:31.595Z,13.18
2019-04-27T13:33:31.594Z,13.15
2019-04-27T13:34:31.551Z,13.27
2019-04-27T13:35:33.899Z,13.30
2019-04-27T13:36:33.112Z,13.38
2019-04-27T13:37:31.567Z,13.41
2019-04-27T13:38:31.517Z,13.47
2019-04-27T13:39:31.507Z,13.56
2019-04-27T13:40:31.492Z,13.62
2019-04-27T13:41:32.911Z,13.65
2019-04-27T13:42:31.478Z,13.65
2019-04-27T13:43:31.481Z,13.74
2019-04-27T13:44:31.450Z,13.79
2019-04-27T13:45:31.437Z,13.81
2019-04-27T13:46:31.471Z,13.78
2019-04-27T13:47:31.430Z,13.90
2019-04-27T13:48:31.418Z,13.93
2019-04-27T13:49:31.406Z,14.05
2019-04-27T13:50:31.405Z,13.95
2019-04-27T13:51:31.371Z,13.96
2019-04-27T13:52:31.364Z,13.96
2019-04-27T13:53:31.369Z,14.04
2019-04-27T13:54:31.328Z,14.15
2019-04-27T13:55:31.324Z,14.23
2019-04-27T13:56:31.333Z,14.32
2019-04-27T13:57:31.308Z,14.36
2019-04-27T13:58:31.336Z,14.32
2019-04-27T13:59:31.798Z,14.41
2019-04-27T14:00:32.656Z,14.50
2019-04-27T14:01:31.249Z,14.59
2019-04-27T14:02:32.600Z,14.68
2019-04-27T14:03:31.241Z,14.48
2019-04-27T14:04:31.269Z,14.36
2019-04-27T14:05:31.227Z,14.23
2019-04-27T14:06:31.204Z,14.11
2019-04-27T14:07:31.207Z,13.85
2019-04-27T14:08:31.235Z,13.60
2019-04-27T14:09:31.175Z,13.04
2019-04-27T14:10:31.239Z,12.40
2019-04-27T14:11:31.192Z,11.91
2019-04-27T14:12:31.274Z,11.44
2019-04-27T14:13:31.187Z,10.93
2019-04-27T14:14:31.128Z,10.64
2019-04-27T14:15:31.176Z,10.38
2019-04-27T14:16:31.115Z,10.13
2019-04-27T14:17:31.085Z,10.04
2019-04-27T14:18:31.083Z,9.99
2019-04-27T14:19:31.083Z,9.92
2019-04-27T14:20:31.121Z,9.84
2019-04-27T14:21:32.867Z,9.76
2019-04-27T14:22:31.633Z,9.74
2019-04-27T14:23:31.042Z,9.86
2019-04-27T14:24:32.067Z,9.87
2019-04-27T14:25:31.052Z,9.86
2019-04-27T14:26:30.993Z,9.84
2019-04-27T14:27:31.042Z,9.80
2019-04-27T14:28:31.041Z,9.68
2019-04-27T14:29:30.986Z,9.56
2019-04-27T14:30:30.948Z,9.48
2019-04-27T14:31:30.973Z,9.46
2019-04-27T14:32:30.940Z,9.39
2019-04-27T14:33:31.180Z,9.43
2019-04-27T14:34:30.976Z,9.54
2019-04-27T14:35:30.910Z,9.59
2019-04-27T14:36:30.900Z,9.58
2019-04-27T14:37:30.871Z,9.56
2019-04-27T14:38:30.856Z,9.61
2019-04-27T14:39:30.851Z,9.64
2019-04-27T14:40:30.855Z,9.72
2019-04-27T14:41:30.847Z,9.64
2019-04-27T14:42:30.833Z,9.64
2019-04-27T14:43:30.794Z,9.65
2019-04-27T14:44:30.803Z,9.65
2019-04-27T14:45:30.808Z,9.62
2019-04-27T14:46:30.896Z,9.66
2019-04-27T14:47:30.811Z,9.69
2019-04-27T14:48:30.760Z,9.68
2019-04-27T14:49:30.747Z,9.79
2019-04-27T14:50:30.744Z,9.83
2019-04-27T14:51:30.798Z,9.84
2019-04-27T14:52:30.748Z,9.86
2019-04-27T14:53:30.704Z,9.86
2019-04-27T14:54:45.092Z,9.91
2019-04-27T14:55:31.681Z,9.97
2019-04-27T14:56:30.716Z,9.92
2019-04-27T14:57:30.694Z,9.97
2019-04-27T14:58:30.668Z,9.99
2019-04-27T14:59:30.663Z,9.95
2019-04-27T15:00:30.762Z,9.99
2019-04-27T15:01:30.618Z,10.02
2019-04-27T15:02:30.677Z,9.99
2019-04-27T15:03:30.664Z,10.01
2019-04-27T15:04:31.398Z,9.99
2019-04-27T15:05:30.584Z,10.01
2019-04-27T15:06:30.605Z,10.01
2019-04-27T15:07:30.580Z,10.02
2019-04-27T15:08:30.606Z,9.98
2019-04-27T15:09:30.559Z,9.97
2019-04-27T15:10:32.894Z,9.92
2019-04-27T15:11:31.714Z,9.87
2019-04-27T15:12:32.366Z,9.82
2019-04-27T15:13:30.536Z,9.82
2019-04-27T15:14:31.080Z,9.77
2019-04-27T15:15:32.541Z,9.77
2019-04-27T15:16:30.516Z,9.76
2019-04-27T15:17:30.554Z,9.77
2019-04-27T15:18:30.460Z,9.80
2019-04-27T15:19:30.617Z,9.86
2019-04-27T15:20:32.729Z,9.87
2019-04-27T15:21:34.283Z,9.92
2019-04-27T15:22:31.427Z,9.91
2019-04-27T15:23:31.826Z,9.84
2019-04-27T15:24:31.183Z,9.86
2019-04-27T15:25:35.024Z,9.86
2019-04-27T15:26:31.614Z,9.87
2019-04-27T15:27:37.204Z,9.87
2019-04-27T15:28:32.091Z,9.91
2019-04-27T15:29:30.376Z,9.94
2019-04-27T15:30:30.345Z,9.99
2019-04-27T15:31:30.324Z,10.02
2019-04-27T15:32:33.498Z,9.98
2019-04-27T15:33:30.587Z,10.02
2019-04-27T15:34:30.314Z,9.99
2019-04-27T15:35:30.304Z,9.91
2019-04-27T15:36:30.280Z,9.86
2019-04-27T15:37:34.175Z,9.87
2019-04-27T15:38:31.233Z,9.83
2019-04-27T15:39:30.598Z,9.76
2019-04-27T15:40:30.253Z,9.65
2019-04-27T15:41:31.567Z,9.59
2019-04-27T15:42:30.230Z,9.59
2019-04-27T15:43:30.856Z,9.55
2019-04-27T15:44:30.173Z,9.50
2019-04-27T15:45:30.351Z,9.50
2019-04-27T15:46:33.810Z,9.55
2019-04-27T15:47:30.181Z,9.58
2019-04-27T15:48:33.877Z,9.61
2019-04-27T15:49:30.117Z,9.64
2019-04-27T15:50:32.233Z,9.59
2019-04-27T15:51:30.118Z,9.61
2019-04-27T15:52:33.110Z,9.61
2019-04-27T15:53:30.078Z,9.66
2019-04-27T15:54:32.282Z,9.69
2019-04-27T15:55:34.484Z,9.68
2019-04-27T15:56:35.082Z,9.77
2019-04-27T15:57:30.173Z,9.80
2019-04-27T15:58:30.094Z,9.77
2019-04-27T15:59:30.883Z,9.80
2019-04-27T16:00:31.005Z,9.82
2019-04-27T16:01:35.700Z,9.82
2019-04-27T16:02:31.055Z,9.84
2019-04-27T16:03:31.316Z,9.84
2019-04-27T16:04:29.947Z,9.94
2019-04-27T16:05:32.655Z,9.99
2019-04-27T16:06:29.931Z,10.01
2019-04-27T16:07:32.069Z,10.01
2019-04-27T16:08:29.926Z,9.98
2019-04-27T16:09:29.953Z,9.87
2019-04-27T16:10:32.931Z,9.89
2019-04-27T16:11:30.918Z,9.92
2019-04-27T16:12:29.876Z,9.95
2019-04-27T16:13:32.961Z,9.95
2019-04-27T16:14:29.839Z,9.86
2019-04-27T16:15:29.939Z,9.79
2019-04-27T16:16:33.458Z,9.76
2019-04-27T16:17:31.996Z,9.76
2019-04-27T16:18:32.513Z,9.76
2019-04-27T16:19:29.815Z,9.82
2019-04-27T16:20:33.753Z,9.86
2019-04-27T16:21:31.549Z,9.86
2019-04-27T16:22:29.776Z,9.92
2019-04-27T16:23:29.762Z,9.92
2019-04-27T16:24:29.739Z,9.94
2019-04-27T16:25:31.552Z,9.92
2019-04-27T16:26:30.779Z,9.92
2019-04-27T16:27:31.336Z,9.95
2019-04-27T16:28:29.775Z,9.91
2019-04-27T16:29:31.566Z,9.91
2019-04-27T16:30:29.675Z,9.86
2019-04-27T16:31:32.794Z,9.87
2019-04-27T16:32:29.661Z,9.84
2019-04-27T16:33:29.625Z,9.79
2019-04-27T16:34:33.042Z,9.76
2019-04-27T16:35:30.625Z,9.77
2019-04-27T16:36:29.639Z,9.76
2019-04-27T16:37:29.613Z,9.68
2019-04-27T16:38:33.641Z,9.68
2019-04-27T16:39:30.573Z,9.64
2019-04-27T16:40:30.154Z,9.64
2019-04-27T16:41:33.051Z,9.61
2019-04-27T16:42:30.546Z,9.58
2019-04-27T16:43:32.663Z,9.55
2019-04-27T16:44:29.563Z,9.50
2019-04-27T16:45:29.525Z,9.43
2019-04-27T16:46:29.512Z,9.41
2019-04-27T16:47:29.494Z,9.36
2019-04-27T16:48:34.388Z,9.37
2019-04-27T16:49:30.565Z,9.34
2019-04-27T16:50:29.452Z,9.32
2019-04-27T16:51:35.915Z,9.25
2019-04-27T16:52:30.457Z,9.26
2019-04-27T16:53:36.682Z,9.22
2019-04-27T16:54:30.431Z,9.22
2019-04-27T16:55:34.213Z,9.21
2019-04-27T16:56:30.435Z,9.14
2019-04-27T16:57:32.449Z,9.10
2019-04-27T16:58:31.916Z,9.02
2019-04-27T16:59:43.417Z,8.94
2019-04-27T17:00:30.570Z,8.87
2019-04-27T17:01:30.456Z,8.85
2019-04-27T17:02:29.330Z,8.85
2019-04-27T17:03:31.576Z,8.82
2019-04-27T17:04:31.390Z,8.82
2019-04-27T17:05:34.279Z,8.81
2019-04-27T17:06:30.276Z,8.84
2019-04-27T17:07:37.390Z,8.84
2019-04-27T17:08:30.258Z,8.84
2019-04-27T17:09:29.362Z,8.85
2019-04-27T17:10:29.318Z,8.88
2019-04-27T17:11:29.817Z,8.87
2019-04-27T17:12:34.374Z,8.87
2019-04-27T17:13:30.633Z,8.85
2019-04-27T17:14:34.942Z,8.85
2019-04-27T17:15:30.234Z,8.85
2019-04-27T17:16:33.772Z,8.82
2019-04-27T17:17:29.176Z,8.81
2019-04-27T17:18:30.950Z,8.81
2019-04-27T17:19:30.664Z,8.79
2019-04-27T17:20:29.916Z,8.78
2019-04-27T17:21:29.180Z,8.79
2019-04-27T17:22:29.102Z,8.81
2019-04-27T17:23:31.426Z,8.79
2019-04-27T17:24:31.914Z,8.82
2019-04-27T17:25:30.502Z,8.79
2019-04-27T17:26:30.097Z,8.82
2019-04-27T17:27:31.692Z,8.82
2019-04-27T17:28:29.083Z,8.85
2019-04-27T17:29:29.059Z,8.89
2019-04-27T17:30:30.935Z,8.89
2019-04-27T17:31:30.012Z,8.89
2019-04-27T17:32:31.323Z,8.89
2019-04-27T17:33:28.998Z,8.89
2019-04-27T17:34:29.019Z,8.89
2019-04-27T17:35:28.979Z,8.94
2019-04-27T17:36:29.280Z,8.95
2019-04-27T17:37:33.475Z,9.00
2019-04-27T17:38:30.487Z,9.00
2019-04-27T17:39:29.862Z,9.02
2019-04-27T17:40:29.838Z,9.02
2019-04-27T17:41:29.896Z,9.06
2019-04-27T17:42:30.600Z,9.06
2019-04-27T17:43:28.949Z,9.03
2019-04-27T17:44:28.974Z,8.99
2019-04-27T17:45:30.482Z,8.95
2019-04-27T17:46:29.854Z,8.97
2019-04-27T17:47:29.888Z,8.95
2019-04-27T17:48:28.962Z,8.97
2019-04-27T17:49:28.825Z,8.94
2019-04-27T17:50:29.845Z,8.94
2019-04-27T17:51:30.943Z,8.95
2019-04-27T17:52:29.796Z,8.89
2019-04-27T17:53:29.874Z,8.87
2019-04-27T17:54:29.042Z,8.85
2019-04-27T17:55:28.760Z,8.81
2019-04-27T17:56:35.593Z,8.79
2019-04-27T17:57:30.366Z,8.76
2019-04-27T17:58:28.751Z,8.71
2019-04-27T17:59:28.732Z,8.67
2019-04-27T18:00:33.067Z,8.64
2019-04-27T18:01:31.941Z,8.63
2019-04-27T18:02:29.327Z,8.63
2019-04-27T18:03:38.705Z,8.60
2019-04-27T18:04:28.862Z,8.56
2019-04-27T18:05:28.699Z,8.53
2019-04-27T18:06:29.782Z,8.52
2019-04-27T18:07:30.171Z,8.48
2019-04-27T18:08:29.106Z,8.45
2019-04-27T18:09:43.314Z,8.45
2019-04-27T18:10:29.620Z,8.42
2019-04-27T18:11:28.915Z,8.41
2019-04-27T18:12:28.654Z,8.37
2019-04-27T18:13:28.899Z,8.36
2019-04-27T18:14:32.588Z,8.37
2019-04-27T18:15:38.854Z,8.34
2019-04-27T18:16:34.036Z,8.33
2019-04-27T18:17:30.700Z,8.33
2019-04-27T18:18:28.550Z,8.31
2019-04-27T18:19:28.545Z,8.28
2019-04-27T18:20:28.976Z,8.28
2019-04-27T18:21:28.533Z,8.31
2019-04-27T18:22:39.626Z,8.31
2019-04-27T18:23:28.481Z,8.30
2019-04-27T18:25:44.600Z,8.33
2019-04-27T18:26:49.489Z,8.34
2019-04-27T18:27:45.538Z,8.31
2019-04-27T18:28:45.953Z,8.28
2019-04-27T18:29:45.487Z,8.28
2019-04-27T18:30:44.509Z,8.27
2019-04-27T18:31:46.457Z,8.28
2019-04-27T18:32:45.633Z,8.27
2019-04-27T18:33:44.673Z,8.26
2019-04-27T18:34:45.262Z,8.20
2019-04-27T18:35:44.495Z,8.19
2019-04-27T18:36:44.973Z,8.16
2019-04-27T18:37:44.541Z,8.16
2019-04-27T18:38:44.559Z,8.13
2019-04-27T18:39:45.354Z,8.12
2019-04-27T18:40:45.525Z,8.13
2019-04-27T18:41:49.463Z,8.12
2019-04-27T18:42:45.351Z,8.09
2019-04-27T18:43:50.533Z,8.09
2019-04-27T18:44:45.332Z,8.09
2019-04-27T18:45:45.268Z,8.08
2019-04-27T18:46:44.333Z,8.06
2019-04-27T18:47:44.298Z,8.05
2019-04-27T18:48:44.714Z,8.05
2019-04-27T18:49:44.480Z,8.06
2019-04-27T18:50:48.459Z,8.06
2019-04-27T18:51:45.510Z,8.08
2019-04-27T18:52:47.689Z,8.06
2019-04-27T18:53:45.805Z,8.05
2019-04-27T18:54:44.598Z,8.03
2019-04-27T18:55:44.600Z,8.05
2019-04-27T18:56:44.222Z,8.03
2019-04-27T18:57:46.048Z,8.05
2019-04-27T18:58:45.427Z,8.03
2019-04-27T18:59:44.637Z,8.05
2019-04-27T19:00:44.927Z,8.03
2019-04-27T19:01:44.241Z,8.05
2019-04-27T19:02:44.641Z,8.03
2019-04-27T19:03:44.775Z,8.05
2019-04-27T19:04:46.171Z,8.06
2019-04-27T19:05:44.177Z,8.06
2019-04-27T19:06:44.093Z,8.06
2019-04-27T19:07:44.355Z,8.06
2019-04-27T19:08:44.292Z,8.05
2019-04-27T19:09:44.395Z,8.01
2019-04-27T19:10:44.704Z,8.01
2019-04-27T19:11:54.132Z,8.01
2019-04-27T19:12:45.084Z,8.01
2019-04-27T19:13:44.024Z,8.00
2019-04-27T19:14:44.032Z,8.00
2019-04-27T19:15:44.038Z,8.00
2019-04-27T19:16:44.154Z,8.01
2019-04-27T19:17:43.972Z,7.98
2019-04-27T19:18:44.243Z,8.00
2019-04-27T19:19:43.958Z,7.98
2019-04-27T19:20:44.102Z,7.98
2019-04-27T19:21:43.979Z,7.97
2019-04-27T19:22:44.062Z,7.97
2019-04-27T19:23:44.734Z,7.95
2019-04-27T19:24:43.993Z,7.97
2019-04-27T19:25:43.901Z,7.97
2019-04-27T19:26:44.030Z,7.97
2019-04-27T19:27:43.984Z,7.98
2019-04-27T19:28:44.175Z,7.97
2019-04-27T19:29:43.930Z,7.94
2019-04-27T19:30:43.958Z,7.95
2019-04-27T19:31:43.868Z,7.95
2019-04-27T19:32:43.981Z,7.94
2019-04-27T19:33:44.123Z,7.93
2019-04-27T19:34:43.907Z,7.94
2019-04-27T19:35:43.959Z,7.93
2019-04-27T19:36:43.831Z,7.94
2019-04-27T19:37:43.906Z,7.93
2019-04-27T19:38:43.763Z,7.93
2019-04-27T19:39:43.805Z,7.91
2019-04-27T19:40:43.829Z,7.91
2019-04-27T19:41:56.320Z,7.91
2019-04-27T19:42:44.735Z,7.93
2019-04-27T19:43:43.714Z,7.94
2019-04-27T19:44:43.714Z,7.91
2019-04-27T19:45:43.745Z,7.90
2019-04-27T19:46:43.740Z,7.93
2019-04-27T19:47:43.801Z,7.94
2019-04-27T19:48:43.660Z,7.95
2019-04-27T19:49:43.812Z,7.94
2019-04-27T19:50:43.615Z,7.93
2019-04-27T19:51:43.699Z,7.94
2019-04-27T19:52:43.724Z,7.94
2019-04-27T19:53:43.664Z,7.94
2019-04-27T19:54:43.615Z,7.95
2019-04-27T19:55:43.679Z,7.97
2019-04-27T19:56:43.598Z,7.95
2019-04-27T19:57:43.881Z,7.97
2019-04-27T19:58:43.613Z,7.97
2019-04-27T19:59:43.523Z,7.98
2019-04-27T20:00:43.556Z,7.98
2019-04-27T20:01:43.546Z,7.98
2019-04-27T20:02:43.472Z,7.98
2019-04-27T20:03:43.471Z,7.97